Time;durP1;ratioP1;P1;durP2;ratioP2;P2;SDS_P1;SDS_P2;PMS_P1;PMS_P2;Temp;Humidity;BMP_temperature;BMP_pressure;BME280_temperature;BME280_humidity;BME280_pressure;Samples;Min_cycle;Max_cycle;Signal;HPM_P1;HPM_P2
2021/03/15 00:00:10;;;;;;;3.30;2.97;;;;;20.50;99878.00;;;;2079548;28;20214;-72
2021/03/15 00:01:11;;;;;;;4.07;3.28;;;;;20.50;99882.00;;;;2070773;28;20222;-72
2021/03/15 00:02:11;;;;;;;4.90;3.70;;;;;20.50;99879.00;;;;2070650;28;20861;-72
2021/03/15 00:03:12;;;;;;;4.80;3.50;;;;;20.50;99865.00;;;;2062372;28;20214;-72
2021/03/15 00:04:12;;;;;;;4.37;3.13;;;;;20.50;99877.00;;;;2062459;28;20732;-72
2021/03/15 00:05:13;;;;;;;4.30;3.50;;;;;20.50;99869.00;;;;2070735;28;20218;-72
2021/03/15 00:06:13;;;;;;;3.47;3.03;;;;;20.50;99873.00;;;;2079399;28;20214;-72
2021/03/15 00:07:14;;;;;;;4.43;3.10;;;;;20.40;99876.00;;;;2078991;28;20313;-72
2021/03/15 00:08:14;;;;;;;4.63;3.10;;;;;20.50;99866.00;;;;2079191;28;20316;-72
2021/03/15 00:09:14;;;;;;;3.77;3.00;;;;;20.40;99864.00;;;;2079237;28;20297;-72
2021/03/15 00:10:15;;;;;;;3.53;2.90;;;;;20.40;99866.00;;;;2079843;28;20221;-73
2021/03/15 00:11:15;;;;;;;4.77;2.90;;;;;20.40;99874.00;;;;2087831;28;20216;-72
2021/03/15 00:12:16;;;;;;;5.03;2.87;;;;;20.40;99867.00;;;;2079182;28;20723;-73
2021/03/15 00:13:18;;;;;;;4.87;3.40;;;;;20.40;99862.00;;;;2078324;28;20210;-72
2021/03/15 00:14:18;;;;;;;5.10;3.10;;;;;20.40;99868.00;;;;2078590;28;20221;-70
2021/03/15 00:15:23;;;;;;;4.13;2.93;;;;;20.40;99864.00;;;;2087681;28;20694;-71
2021/03/15 00:16:23;;;;;;;4.65;2.83;;;;;20.40;99867.00;;;;2078720;28;20210;-72
2021/03/15 00:17:24;;;;;;;3.70;2.57;;;;;20.40;99862.00;;;;2070194;28;20285;-72
2021/03/15 00:18:24;;;;;;;3.63;2.60;;;;;20.40;99856.00;;;;2078511;28;20209;-72
2021/03/15 00:19:25;;;;;;;2.50;2.30;;;;;20.40;99857.00;;;;2078801;28;20256;-72
2021/03/15 00:20:25;;;;;;;3.70;3.07;;;;;20.40;99858.00;;;;2078683;28;20448;-71
2021/03/15 00:21:26;;;;;;;4.50;3.03;;;;;20.40;99844.00;;;;2078447;28;20210;-72
2021/03/15 00:22:26;;;;;;;4.20;3.00;;;;;20.40;99855.00;;;;2070637;28;20605;-73
2021/03/15 00:23:26;;;;;;;3.43;2.67;;;;;20.40;99851.00;;;;2070807;28;20214;-73
2021/03/15 00:24:27;;;;;;;3.70;2.67;;;;;20.40;99842.00;;;;2079217;28;20237;-72
2021/03/15 00:25:27;;;;;;;3.90;2.43;;;;;20.40;99850.00;;;;2089493;28;20700;-72
2021/03/15 00:26:27;;;;;;;3.50;2.93;;;;;20.40;99849.00;;;;2088467;28;20957;-72
2021/03/15 00:27:28;;;;;;;3.90;2.27;;;;;20.30;99845.00;;;;2088116;28;20599;-72
2021/03/15 00:28:28;;;;;;;3.67;2.60;;;;;20.20;99849.00;;;;2089109;28;20209;-72
2021/03/15 00:29:28;;;;;;;3.70;2.77;;;;;20.30;99845.00;;;;2089114;28;20221;-72
2021/03/15 00:30:29;;;;;;;3.90;2.63;;;;;20.30;99848.00;;;;2089248;28;20209;-73
2021/03/15 00:31:29;;;;;;;3.43;2.83;;;;;20.30;99846.00;;;;2089346;28;20201;-73
2021/03/15 00:32:29;;;;;;;4.47;2.43;;;;;20.30;99845.00;;;;2087770;28;20259;-72
2021/03/15 00:33:30;;;;;;;4.27;2.80;;;;;20.30;99833.00;;;;2088010;28;20220;-72
2021/03/15 00:34:33;;;;;;;3.60;2.50;;;;;20.30;99834.00;;;;2088627;28;20213;-72
2021/03/15 00:35:33;;;;;;;4.80;3.03;;;;;20.30;99838.00;;;;2079994;28;20206;-72
2021/03/15 00:36:34;;;;;;;4.13;2.77;;;;;20.30;99836.00;;;;2078321;28;20899;-73
2021/03/15 00:37:34;;;;;;;4.40;2.60;;;;;20.30;99836.00;;;;2087945;28;20955;-72
2021/03/15 00:38:35;;;;;;;3.53;2.70;;;;;20.30;99840.00;;;;2089164;28;20227;-72
2021/03/15 00:39:35;;;;;;;4.17;2.90;;;;;20.30;99839.00;;;;2088787;28;20206;-72
2021/03/15 00:40:35;;;;;;;4.43;2.90;;;;;20.30;99835.00;;;;2084962;28;20225;-73
2021/03/15 00:41:36;;;;;;;4.00;2.87;;;;;20.30;99834.00;;;;2089260;28;20722;-72
2021/03/15 00:42:36;;;;;;;5.17;2.80;;;;;20.20;99838.00;;;;2089027;28;20877;-72
2021/03/15 00:43:37;;;;;;;4.50;2.87;;;;;20.20;99838.00;;;;2089320;28;20318;-72
2021/03/15 00:44:37;;;;;;;4.60;2.80;;;;;20.20;99831.00;;;;2080411;28;20213;-72
2021/03/15 00:45:38;;;;;;;5.07;2.80;;;;;20.20;99831.00;;;;2072343;28;20221;-72
2021/03/15 00:46:38;;;;;;;4.77;3.03;;;;;20.20;99828.00;;;;2080323;28;20609;-72
2021/03/15 00:47:38;;;;;;;4.47;2.80;;;;;20.20;99838.00;;;;2088757;28;20213;-72
2021/03/15 00:48:39;;;;;;;4.10;2.73;;;;;20.20;99834.00;;;;2088582;28;20254;-72
2021/03/15 00:49:39;;;;;;;3.13;2.40;;;;;20.20;99829.00;;;;2088521;28;20218;-72
2021/03/15 00:50:42;;;;;;;3.37;2.50;;;;;20.20;99829.00;;;;2079966;28;20210;-73
2021/03/15 00:51:43;;;;;;;3.55;2.67;;;;;20.20;99828.00;;;;2072261;28;20304;-72
2021/03/15 00:52:43;;;;;;;5.00;2.47;;;;;20.20;99826.00;;;;2080384;28;20676;-72
2021/03/15 00:53:43;;;;;;;3.37;2.20;;;;;20.20;99829.00;;;;2088695;28;20217;-73
2021/03/15 00:54:44;;;;;;;6.83;3.10;;;;;20.20;99833.00;;;;2079901;28;20304;-73
2021/03/15 00:55:44;;;;;;;4.60;2.63;;;;;20.20;99825.00;;;;2080288;28;20214;-73
2021/03/15 00:56:44;;;;;;;4.07;2.53;;;;;20.20;99825.00;;;;2088810;28;20815;-73
2021/03/15 00:57:45;;;;;;;4.40;2.73;;;;;20.20;99830.00;;;;2088465;28;20217;-73
2021/03/15 00:58:46;;;;;;;4.35;2.75;;;;;20.20;99827.00;;;;2088895;28;20220;-71
2021/03/15 00:59:46;;;;;;;5.10;2.77;;;;;20.10;99826.00;;;;2089018;28;20237;-73
2021/03/15 01:00:49;;;;;;;4.33;2.33;;;;;20.20;99826.00;;;;2088823;28;20216;-72
2021/03/15 01:01:49;;;;;;;4.95;2.97;;;;;20.20;99812.00;;;;2088773;28;20213;-73
2021/03/15 01:02:50;;;;;;;4.67;3.00;;;;;20.20;99812.00;;;;2088885;28;20691;-72
2021/03/15 01:03:50;;;;;;;4.87;3.23;;;;;20.10;99818.00;;;;2084302;28;20233;-73
2021/03/15 01:04:50;;;;;;;4.37;2.87;;;;;20.10;99819.00;;;;2083663;28;20244;-73
2021/03/15 01:05:51;;;;;;;4.63;2.90;;;;;20.10;99821.00;;;;2088881;28;20252;-73
2021/03/15 01:06:52;;;;;;;4.75;2.58;;;;;20.10;99820.00;;;;2088257;28;20229;-73
2021/03/15 01:07:52;;;;;;;4.00;2.33;;;;;20.10;99806.00;;;;2080193;28;20757;-72
2021/03/15 01:08:52;;;;;;;4.13;3.30;;;;;20.10;99803.00;;;;2079492;28;20238;-72
2021/03/15 01:09:53;;;;;;;3.50;2.80;;;;;20.10;99802.00;;;;2088878;28;20229;-72
2021/03/15 01:10:53;;;;;;;5.13;2.90;;;;;20.10;99797.00;;;;2088337;28;20213;-73
2021/03/15 01:11:54;;;;;;;5.33;3.00;;;;;20.10;99803.00;;;;2083554;28;20247;-73
2021/03/15 01:12:54;;;;;;;4.63;2.87;;;;;20.10;99799.00;;;;2082159;28;20224;-73
2021/03/15 01:13:54;;;;;;;4.67;3.00;;;;;20.10;99796.00;;;;2088965;28;20747;-72
2021/03/15 01:14:55;;;;;;;3.70;2.70;;;;;20.10;99802.00;;;;2080006;28;20248;-73
2021/03/15 01:15:55;;;;;;;3.70;2.90;;;;;20.10;99797.00;;;;2079975;28;20229;-73
2021/03/15 01:16:56;;;;;;;4.60;2.90;;;;;20.10;99790.00;;;;2088165;28;20700;-73
2021/03/15 01:17:56;;;;;;;4.07;3.00;;;;;20.10;99788.00;;;;2089058;28;20220;-73
2021/03/15 01:18:57;;;;;;;4.07;2.67;;;;;20.10;99793.00;;;;2088407;28;20206;-72
2021/03/15 01:19:57;;;;;;;4.20;2.60;;;;;20.10;99791.00;;;;2071025;28;20216;-72
2021/03/15 01:20:58;;;;;;;3.30;3.00;;;;;20.00;99798.00;;;;2063541;28;20249;-73
2021/03/15 01:21:58;;;;;;;3.40;2.80;;;;;20.10;99794.00;;;;2074117;28;20214;-72
2021/03/15 01:22:59;;;;;;;3.60;2.90;;;;;20.00;99788.00;;;;2079908;28;20213;-72
2021/03/15 01:24:00;;;;;;;5.30;2.93;;;;;20.00;99789.00;;;;2071901;28;20214;-73
2021/03/15 01:25:00;;;;;;;3.95;2.78;;;;;20.00;99787.00;;;;2080016;28;20213;-72
2021/03/15 01:26:00;;;;;;;5.33;3.20;;;;;20.10;99783.00;;;;2088779;28;20300;-73
2021/03/15 01:27:01;;;;;;;4.87;2.80;;;;;20.00;99785.00;;;;2088026;28;20212;-73
2021/03/15 01:28:03;;;;;;;4.97;3.10;;;;;20.00;99783.00;;;;2088874;28;20216;-73
2021/03/15 01:29:03;;;;;;;3.70;2.70;;;;;20.00;99784.00;;;;2088556;28;20209;-72
2021/03/15 01:30:11;;;;;;;3.80;2.73;;;;;20.00;99785.00;;;;2088874;28;20312;-72
2021/03/15 01:31:11;;;;;;;3.50;2.63;;;;;20.00;99782.00;;;;2088468;28;20221;-73
2021/03/15 01:32:12;;;;;;;4.13;2.73;;;;;20.00;99780.00;;;;2080090;28;20213;-73
2021/03/15 01:33:13;;;;;;;5.10;3.13;;;;;20.00;99780.00;;;;2079627;28;20206;-73
2021/03/15 01:34:13;;;;;;;5.53;3.33;;;;;20.00;99785.00;;;;2074191;28;20670;-72
2021/03/15 01:35:13;;;;;;;4.57;2.67;;;;;20.00;99779.00;;;;2071066;28;20472;-73
2021/03/15 01:36:14;;;;;;;4.07;2.63;;;;;20.00;99775.00;;;;2087544;28;20226;-72
2021/03/15 01:37:14;;;;;;;3.57;2.67;;;;;20.00;99782.00;;;;2079845;28;20215;-72
2021/03/15 01:38:15;;;;;;;3.97;2.90;;;;;19.90;99768.00;;;;2079984;28;20218;-72
2021/03/15 01:39:15;;;;;;;3.87;2.57;;;;;20.00;99775.00;;;;2079663;28;20468;-72
2021/03/15 01:40:15;;;;;;;4.70;2.40;;;;;20.00;99768.00;;;;2079933;28;20218;-72
2021/03/15 01:41:16;;;;;;;3.20;2.20;;;;;20.00;99763.00;;;;2080242;28;20216;-72
2021/03/15 01:42:16;;;;;;;2.97;2.37;;;;;20.00;99770.00;;;;2080458;28;20287;-72
2021/03/15 01:43:16;;;;;;;3.47;2.40;;;;;20.00;99759.00;;;;2088062;28;20209;-71
2021/03/15 01:44:17;;;;;;;5.07;2.57;;;;;20.00;99761.00;;;;2088560;28;20731;-72
2021/03/15 01:45:17;;;;;;;4.13;2.37;;;;;19.90;99759.00;;;;2088434;28;20755;-72
2021/03/15 01:46:19;;;;;;;3.50;2.70;;;;;19.90;99762.00;;;;2079693;28;20550;-73
2021/03/15 01:47:19;;;;;;;3.15;2.63;;;;;19.90;99763.00;;;;2079288;28;20210;-72
2021/03/15 01:48:19;;;;;;;3.33;2.40;;;;;19.90;99757.00;;;;2079791;28;20743;-72
2021/03/15 01:49:20;;;;;;;4.30;2.60;;;;;19.90;99755.00;;;;2079490;28;20226;-72
2021/03/15 01:50:20;;;;;;;5.30;2.60;;;;;19.90;99747.00;;;;2088857;28;20244;-73
2021/03/15 01:51:21;;;;;;;4.27;2.30;;;;;19.90;99758.00;;;;2088596;28;20213;-72
2021/03/15 01:52:21;;;;;;;3.50;2.47;;;;;19.90;99751.00;;;;2071542;28;20246;-73
2021/03/15 01:53:21;;;;;;;3.50;2.50;;;;;19.90;99749.00;;;;2055401;28;20230;-72
2021/03/15 01:54:22;;;;;;;3.40;2.80;;;;;19.90;99750.00;;;;2071268;28;20578;-71
2021/03/15 01:55:23;;;;;;;3.07;2.17;;;;;19.90;99745.00;;;;2079800;28;20795;-72
2021/03/15 01:56:23;;;;;;;3.80;2.40;;;;;19.90;99743.00;;;;2071559;28;20217;-72
2021/03/15 01:57:24;;;;;;;3.10;2.23;;;;;19.90;99738.00;;;;2079231;28;20213;-73
2021/03/15 01:58:24;;;;;;;2.50;2.30;;;;;19.90;99735.00;;;;2079925;28;20220;-73
2021/03/15 01:59:25;;;;;;;3.20;2.20;;;;;19.90;99741.00;;;;2079718;28;20571;-73
2021/03/15 02:00:25;;;;;;;2.33;2.13;;;;;19.90;99738.00;;;;2070986;28;20226;-72
2021/03/15 02:01:25;;;;;;;2.73;2.00;;;;;19.90;99743.00;;;;2071151;28;20685;-72
2021/03/15 02:02:26;;;;;;;3.43;2.90;;;;;19.80;99739.00;;;;2079103;28;20352;-73
2021/03/15 02:03:26;;;;;;;3.80;2.23;;;;;19.90;99734.00;;;;2088069;28;20204;-73
2021/03/15 02:04:27;;;;;;;3.50;2.10;;;;;19.90;99736.00;;;;2071478;28;20617;-73
2021/03/15 02:05:27;;;;;;;3.00;2.30;;;;;19.90;99728.00;;;;2070216;28;20234;-73
2021/03/15 02:06:28;;;;;;;2.47;2.27;;;;;19.90;99732.00;;;;2064622;28;20262;-73
2021/03/15 02:07:28;;;;;;;3.37;2.30;;;;;19.90;99732.00;;;;2079267;28;20508;-73
2021/03/15 02:08:28;;;;;;;3.40;2.07;;;;;19.80;99723.00;;;;2088016;28;20850;-72
2021/03/15 02:09:29;;;;;;;2.50;2.07;;;;;19.90;99726.00;;;;2088002;28;20674;-72
2021/03/15 02:10:29;;;;;;;4.63;2.77;;;;;19.80;99720.00;;;;2088631;28;20232;-72
2021/03/15 02:11:49;;;;;;;2.90;2.33;;;;;19.80;99722.00;;;;2088358;28;20217;-73
2021/03/15 02:13:16;;;;;;;2.55;2.28;;;;;19.80;99720.00;;;;2071336;28;20214;-73
2021/03/15 02:14:31;;;;;;;2.72;2.00;;;;;19.80;99711.00;;;;2080186;28;20201;-72
2021/03/15 02:15:56;;;;;;;3.05;2.20;;;;;19.80;99711.00;;;;2071334;28;20304;-72
2021/03/15 02:16:59;;;;;;;3.70;2.30;;;;;19.80;99707.00;;;;2063910;28;20222;-73
2021/03/15 02:18:25;;;;;;;3.17;2.25;;;;;19.80;99713.00;;;;2071687;28;20218;-73
2021/03/15 02:20:10;;;;;;;4.15;2.38;;;;;19.80;99706.00;;;;2082038;28;20285;-72
2021/03/15 02:21:32;;;;;;;4.10;2.45;;;;;19.80;99711.00;;;;2049386;28;20265;-72
2021/03/15 02:22:55;;;;;;;2.47;2.10;;;;;19.80;99704.00;;;;2088114;28;20724;-72
2021/03/15 02:24:17;;;;;;;3.70;2.20;;;;;19.80;99705.00;;;;2074434;28;20228;-72
2021/03/15 02:25:52;;;;;;;3.83;1.90;;;;;19.70;99701.00;;;;2087374;28;20300;-72
2021/03/15 02:27:04;;;;;;;3.35;2.17;;;;;19.80;99696.00;;;;2077278;28;20803;-72
2021/03/15 02:28:27;;;;;;;3.88;2.80;;;;;19.70;99702.00;;;;2083381;28;20216;-73
2021/03/15 02:29:59;;;;;;;2.55;2.20;;;;;19.70;99696.00;;;;2078541;28;20309;-72
2021/03/15 02:31:27;;;;;;;2.90;2.50;;;;;19.80;99697.00;;;;2074959;28;20218;-72
2021/03/15 02:32:34;;;;;;;3.13;2.10;;;;;19.70;99692.00;;;;2076961;28;20295;-72
2021/03/15 02:34:09;;;;;;;4.20;2.40;;;;;19.70;99700.00;;;;2080265;28;20760;-72
2021/03/15 02:35:10;;;;;;;4.43;2.58;;;;;19.80;99697.00;;;;2084071;28;20672;-72
2021/03/15 02:36:11;;;;;;;2.58;1.90;;;;;19.70;99688.00;;;;2066381;28;20700;-72
2021/03/15 02:37:13;;;;;;;2.97;2.50;;;;;19.70;99681.00;;;;2062385;28;20227;-72
2021/03/15 02:38:13;;;;;;;2.95;2.33;;;;;19.70;99691.00;;;;2062303;28;20215;-72
2021/03/15 02:39:16;;;;;;;3.73;2.27;;;;;19.70;99692.00;;;;2071217;28;20213;-72
2021/03/15 02:40:46;;;;;;;3.88;2.35;;;;;19.70;99682.00;;;;2071069;28;20306;-72
2021/03/15 02:41:47;;;;;;;3.72;2.80;;;;;19.70;99689.00;;;;2074368;28;20292;-72
2021/03/15 02:42:47;;;;;;;3.63;2.37;;;;;19.70;99690.00;;;;2073832;28;20218;-72
2021/03/15 02:43:53;;;;;;;3.47;2.43;;;;;19.70;99694.00;;;;2070802;28;20213;-72
2021/03/15 02:44:53;;;;;;;3.92;2.47;;;;;19.70;99684.00;;;;2063187;28;20706;-72
2021/03/15 02:45:56;;;;;;;2.13;1.83;;;;;19.70;99690.00;;;;2062797;28;20207;-72
2021/03/15 02:46:57;;;;;;;2.65;2.13;;;;;19.70;99677.00;;;;2069936;28;20272;-72
2021/03/15 02:47:57;;;;;;;2.60;2.00;;;;;19.70;99689.00;;;;2079297;28;20228;-73
2021/03/15 02:49:00;;;;;;;3.20;2.57;;;;;19.70;99690.00;;;;2071007;28;20224;-72
2021/03/15 02:50:03;;;;;;;2.85;2.30;;;;;19.70;99689.00;;;;2063613;28;20301;-72
2021/03/15 02:51:04;;;;;;;2.53;2.05;;;;;19.60;99687.00;;;;2079563;28;20221;-72
2021/03/15 02:52:05;;;;;;;4.43;2.50;;;;;19.70;99695.00;;;;2079123;28;20226;-73
2021/03/15 02:53:06;;;;;;;3.30;2.40;;;;;19.70;99681.00;;;;2071116;28;20253;-73
2021/03/15 02:54:08;;;;;;;4.28;2.58;;;;;19.70;99685.00;;;;2063169;28;20821;-72
2021/03/15 02:55:08;;;;;;;2.55;2.10;;;;;19.60;99693.00;;;;2071381;28;20233;-72
2021/03/15 02:56:27;;;;;;;2.70;2.03;;;;;19.60;99682.00;;;;2079230;28;20227;-72
2021/03/15 02:57:30;;;;;;;3.40;2.65;;;;;19.60;99681.00;;;;2070413;28;20205;-72
2021/03/15 02:58:31;;;;;;;2.80;2.20;;;;;19.60;99684.00;;;;2062528;28;21009;-72
2021/03/15 02:59:31;;;;;;;3.10;2.47;;;;;19.60;99687.00;;;;2071072;28;20336;-72
2021/03/15 03:00:31;;;;;;;3.13;2.20;;;;;19.60;99689.00;;;;2079119;28;20222;-73
2021/03/15 03:01:32;;;;;;;3.70;2.40;;;;;19.60;99683.00;;;;2079077;28;20225;-72
2021/03/15 03:02:35;;;;;;;2.70;2.20;;;;;19.60;99685.00;;;;2079279;28;20226;-72
2021/03/15 03:03:36;;;;;;;3.60;2.70;;;;;19.60;99688.00;;;;2079136;28;20518;-72
2021/03/15 03:04:37;;;;;;;2.70;2.17;;;;;19.60;99680.00;;;;2070792;28;20285;-72
2021/03/15 03:05:37;;;;;;;2.70;2.33;;;;;19.60;99684.00;;;;2062884;28;20321;-73
2021/03/15 03:06:38;;;;;;;2.87;2.60;;;;;19.60;99682.00;;;;2062854;28;20901;-72
2021/03/15 03:07:40;;;;;;;2.17;1.98;;;;;19.60;99677.00;;;;2070183;28;20229;-72
2021/03/15 03:08:40;;;;;;;3.55;2.22;;;;;19.60;99681.00;;;;2070398;28;20229;-72
2021/03/15 03:09:41;;;;;;;3.10;2.40;;;;;19.60;99685.00;;;;2052820;28;20238;-72
2021/03/15 03:10:41;;;;;;;2.63;2.10;;;;;19.60;99677.00;;;;2070677;28;20708;-72
2021/03/15 03:11:42;;;;;;;3.60;2.80;;;;;19.60;99677.00;;;;2082751;28;20234;-72
2021/03/15 03:12:42;;;;;;;2.20;2.00;;;;;19.60;99682.00;;;;2070592;28;20698;-72
2021/03/15 03:13:43;;;;;;;4.77;2.70;;;;;19.60;99693.00;;;;2062428;28;20305;-72
2021/03/15 03:14:43;;;;;;;3.20;2.40;;;;;19.60;99684.00;;;;2062189;28;20568;-69
2021/03/15 03:15:43;;;;;;;3.50;2.50;;;;;19.60;99685.00;;;;2070562;28;20706;-71
2021/03/15 03:16:44;;;;;;;2.17;1.97;;;;;19.60;99684.00;;;;2062100;28;20652;-71
2021/03/15 03:17:44;;;;;;;3.63;2.73;;;;;19.60;99697.00;;;;2061447;28;20693;-72
2021/03/15 03:18:44;;;;;;;3.40;2.37;;;;;19.60;99682.00;;;;2078743;28;20276;-72
2021/03/15 03:19:45;;;;;;;4.40;2.20;;;;;19.60;99682.00;;;;2078515;28;20287;-72
2021/03/15 03:20:48;;;;;;;2.30;1.90;;;;;19.60;99683.00;;;;2054760;28;20231;-72
2021/03/15 03:21:49;;;;;;;3.13;2.30;;;;;19.60;99686.00;;;;2063383;28;20479;-72
2021/03/15 03:22:50;;;;;;;2.50;2.30;;;;;19.60;99682.00;;;;2086765;28;20630;-72
2021/03/15 03:23:52;;;;;;;3.15;2.00;;;;;19.50;99679.00;;;;2070606;28;20677;-72
2021/03/15 03:24:52;;;;;;;3.53;2.38;;;;;19.50;99683.00;;;;2071212;28;20214;-72
2021/03/15 03:25:54;;;;;;;2.30;2.10;;;;;19.60;99679.00;;;;2070078;28;20677;-73
2021/03/15 03:26:54;;;;;;;2.25;2.05;;;;;19.60;99677.00;;;;2070448;28;20227;-72
2021/03/15 03:27:55;;;;;;;2.43;2.23;;;;;19.60;99680.00;;;;2062727;28;20215;-73
2021/03/15 03:28:56;;;;;;;3.43;2.07;;;;;19.60;99676.00;;;;2054705;28;20218;-73
2021/03/15 03:29:56;;;;;;;2.50;2.17;;;;;19.50;99680.00;;;;2078578;28;20491;-72
2021/03/15 03:30:58;;;;;;;2.27;1.97;;;;;19.50;99686.00;;;;2070967;28;20242;-72
2021/03/15 03:31:58;;;;;;;2.13;1.60;;;;;19.50;99682.00;;;;2070813;28;20781;-72
2021/03/15 03:33:02;;;;;;;1.90;1.77;;;;;19.50;99680.00;;;;2070925;28;20301;-72
2021/03/15 03:34:02;;;;;;;2.17;1.98;;;;;19.50;99692.00;;;;2073781;28;20603;-72
2021/03/15 03:35:03;;;;;;;2.50;1.73;;;;;19.50;99684.00;;;;2078829;28;20249;-72
2021/03/15 03:36:04;;;;;;;2.25;2.05;;;;;19.50;99683.00;;;;2072778;28;20285;-73
2021/03/15 03:37:04;;;;;;;2.17;1.97;;;;;19.50;99685.00;;;;2076374;28;20301;-73
2021/03/15 03:38:05;;;;;;;1.93;1.80;;;;;19.50;99689.00;;;;2070851;28;20218;-73
2021/03/15 03:39:06;;;;;;;1.80;1.70;;;;;19.50;99685.00;;;;2079083;28;20250;-73
2021/03/15 03:40:07;;;;;;;2.65;2.25;;;;;19.50;99688.00;;;;2087589;28;20224;-73
2021/03/15 03:41:07;;;;;;;1.97;1.83;;;;;19.50;99684.00;;;;2079119;28;20354;-73
2021/03/15 03:42:08;;;;;;;2.60;2.10;;;;;19.50;99694.00;;;;2070684;28;20687;-73
2021/03/15 03:43:08;;;;;;;2.20;2.00;;;;;19.50;99690.00;;;;2078856;28;20305;-72
2021/03/15 03:44:10;;;;;;;2.57;2.00;;;;;19.50;99690.00;;;;2087459;28;20221;-71
2021/03/15 03:45:11;;;;;;;2.90;2.10;;;;;19.50;99688.00;;;;2087698;28;20215;-72
2021/03/15 03:46:12;;;;;;;2.30;1.73;;;;;19.50;99693.00;;;;2087581;28;20342;-73
2021/03/15 03:47:15;;;;;;;2.30;2.05;;;;;19.50;99694.00;;;;2078118;28;20213;-72
2021/03/15 03:48:15;;;;;;;2.58;2.30;;;;;19.50;99694.00;;;;2070968;28;20214;-73
2021/03/15 03:49:15;;;;;;;2.90;2.03;;;;;19.40;99694.00;;;;2078795;28;20296;-73
2021/03/15 03:50:19;;;;;;;2.07;1.87;;;;;19.50;99691.00;;;;2087719;28;20212;-72
2021/03/15 03:51:20;;;;;;;2.17;1.77;;;;;19.50;99695.00;;;;2078407;28;20224;-72
2021/03/15 03:52:21;;;;;;;2.55;1.70;;;;;19.50;99688.00;;;;2070656;28;20263;-73
2021/03/15 03:53:25;;;;;;;2.70;1.87;;;;;19.50;99698.00;;;;2070746;28;20222;-72
2021/03/15 03:54:29;;;;;;;2.05;1.83;;;;;19.50;99685.00;;;;2071904;28;20210;-72
2021/03/15 03:55:32;;;;;;;2.40;1.88;;;;;19.40;99692.00;;;;2070507;28;20229;-72
2021/03/15 03:56:44;;;;;;;2.38;2.00;;;;;19.40;99700.00;;;;2071049;28;20221;-72
2021/03/15 03:57:45;;;;;;;2.40;2.20;;;;;19.50;99703.00;;;;2071797;28;20743;-72
2021/03/15 03:58:48;;;;;;;2.60;2.13;;;;;19.40;99696.00;;;;2070287;28;20225;-73
2021/03/15 03:59:49;;;;;;;2.50;1.98;;;;;19.40;99705.00;;;;2070240;28;20229;-72
2021/03/15 04:00:53;;;;;;;2.30;2.10;;;;;19.40;99701.00;;;;2078833;28;20212;-71
2021/03/15 04:01:57;;;;;;;2.53;2.30;;;;;19.40;99701.00;;;;2078934;28;20221;-72
2021/03/15 04:03:03;;;;;;;2.92;2.55;;;;;19.40;99699.00;;;;2078961;28;20212;-72
2021/03/15 04:04:04;;;;;;;3.40;2.47;;;;;19.40;99702.00;;;;2070388;28;20217;-72
2021/03/15 04:05:07;;;;;;;2.28;2.17;;;;;19.40;99703.00;;;;2062595;28;20260;-72
2021/03/15 04:06:12;;;;;;;3.40;2.88;;;;;19.40;99703.00;;;;2063091;28;20216;-72
2021/03/15 04:07:12;;;;;;;2.42;2.22;;;;;19.40;99700.00;;;;2063059;28;20609;-72
2021/03/15 04:08:13;;;;;;;3.13;2.50;;;;;19.40;99706.00;;;;2062862;28;20219;-72
2021/03/15 04:09:14;;;;;;;3.13;2.83;;;;;19.40;99699.00;;;;2078808;28;20326;-72
2021/03/15 04:10:15;;;;;;;3.08;2.47;;;;;19.40;99699.00;;;;2071064;28;20461;-72
2021/03/15 04:11:18;;;;;;;3.27;2.50;;;;;19.40;99704.00;;;;2078614;28;20267;-73
2021/03/15 04:12:20;;;;;;;2.50;2.30;;;;;19.40;99702.00;;;;2076865;28;20240;-73
2021/03/15 04:13:23;;;;;;;2.55;2.35;;;;;19.40;99702.00;;;;2078912;28;20236;-73
2021/03/15 04:14:30;;;;;;;2.50;2.30;;;;;19.40;99705.00;;;;2079052;28;20216;-73
2021/03/15 04:15:31;;;;;;;2.30;2.10;;;;;19.40;99700.00;;;;2070754;28;20219;-72
2021/03/15 04:16:33;;;;;;;3.17;2.60;;;;;19.40;99712.00;;;;2070544;28;20221;-72
2021/03/15 04:17:41;;;;;;;3.17;2.50;;;;;19.40;99707.00;;;;2070023;28;20203;-72
2021/03/15 04:18:44;;;;;;;2.28;2.00;;;;;19.40;99712.00;;;;2073203;28;20223;-73
2021/03/15 04:20:00;;;;;;;3.10;2.30;;;;;19.40;99715.00;;;;2078590;28;20747;-73
2021/03/15 04:21:00;;;;;;;2.70;2.20;;;;;19.40;99721.00;;;;2072836;28;20242;-73
2021/03/15 04:22:03;;;;;;;2.60;2.40;;;;;19.40;99720.00;;;;2078771;28;20374;-72
2021/03/15 04:23:07;;;;;;;2.70;2.50;;;;;19.40;99726.00;;;;2078521;28;20320;-73
2021/03/15 04:24:08;;;;;;;2.58;2.13;;;;;19.30;99728.00;;;;2070381;28;20214;-73
2021/03/15 04:25:09;;;;;;;2.43;2.23;;;;;19.30;99723.00;;;;2070597;28;20256;-73
2021/03/15 04:26:09;;;;;;;2.80;2.60;;;;;19.30;99727.00;;;;2070690;28;20210;-73
2021/03/15 04:27:09;;;;;;;3.20;2.90;;;;;19.30;99726.00;;;;2053660;28;20975;-73
2021/03/15 04:28:10;;;;;;;3.00;2.70;;;;;19.30;99730.00;;;;2070682;28;20697;-73
2021/03/15 04:29:10;;;;;;;3.20;2.90;;;;;19.30;99732.00;;;;2078755;28;20290;-73
2021/03/15 04:30:11;;;;;;;2.93;2.70;;;;;19.30;99722.00;;;;2078787;28;20736;-73
2021/03/15 04:31:12;;;;;;;2.80;2.60;;;;;19.30;99723.00;;;;2062617;28;20219;-73
2021/03/15 04:32:12;;;;;;;3.10;2.80;;;;;19.30;99731.00;;;;2070671;28;20229;-72
2021/03/15 04:33:13;;;;;;;3.10;2.80;;;;;19.30;99734.00;;;;2087591;28;20217;-72
2021/03/15 04:34:13;;;;;;;3.00;2.80;;;;;19.30;99724.00;;;;2078225;28;20219;-73
2021/03/15 04:35:13;;;;;;;2.97;2.77;;;;;19.30;99730.00;;;;2070228;28;20224;-72
2021/03/15 04:36:14;;;;;;;2.77;2.47;;;;;19.30;99735.00;;;;2070347;28;20270;-73
2021/03/15 04:37:15;;;;;;;2.57;2.37;;;;;19.30;99733.00;;;;2086470;28;20219;-73
2021/03/15 04:38:15;;;;;;;3.73;2.63;;;;;19.30;99737.00;;;;2078653;28;20247;-73
2021/03/15 04:39:16;;;;;;;2.60;2.40;;;;;19.30;99734.00;;;;2070439;28;20225;-73
2021/03/15 04:40:17;;;;;;;2.90;2.67;;;;;19.30;99744.00;;;;2070593;28;20217;-73
2021/03/15 04:41:18;;;;;;;2.42;2.20;;;;;19.30;99751.00;;;;2070692;28;20600;-72
2021/03/15 04:42:18;;;;;;;3.30;2.50;;;;;19.30;99745.00;;;;2070572;28;20240;-72
2021/03/15 04:43:18;;;;;;;3.03;2.60;;;;;19.30;99743.00;;;;2078666;28;20273;-73
2021/03/15 04:44:19;;;;;;;3.00;2.80;;;;;19.30;99741.00;;;;2070710;28;20692;-73
2021/03/15 04:45:19;;;;;;;2.43;2.20;;;;;19.30;99740.00;;;;2070458;28;20243;-73
2021/03/15 04:46:20;;;;;;;3.40;2.90;;;;;19.30;99749.00;;;;2077486;28;20224;-72
2021/03/15 04:47:21;;;;;;;3.42;2.58;;;;;19.30;99755.00;;;;2069384;28;20638;-73
2021/03/15 04:48:26;;;;;;;4.40;2.77;;;;;19.30;99747.00;;;;2070520;28;20275;-72
2021/03/15 04:49:26;;;;;;;2.95;2.65;;;;;19.30;99746.00;;;;2078310;28;20320;-72
2021/03/15 04:50:27;;;;;;;3.60;3.27;;;;;19.30;99754.00;;;;2078773;28;20209;-72
2021/03/15 04:51:27;;;;;;;3.80;2.30;;;;;19.30;99746.00;;;;2078768;28;20218;-72
2021/03/15 04:52:28;;;;;;;2.73;2.50;;;;;19.30;99756.00;;;;2078501;28;20207;-72
2021/03/15 04:53:28;;;;;;;2.70;2.50;;;;;19.30;99753.00;;;;2078611;28;20289;-72
2021/03/15 04:54:29;;;;;;;3.20;2.50;;;;;19.30;99752.00;;;;2078310;28;20281;-73
2021/03/15 04:55:29;;;;;;;2.83;2.63;;;;;19.30;99760.00;;;;2078867;28;20674;-73
2021/03/15 04:56:30;;;;;;;2.87;2.63;;;;;19.20;99756.00;;;;2078495;28;20293;-72
2021/03/15 04:57:31;;;;;;;3.23;2.60;;;;;19.30;99756.00;;;;2078085;28;20213;-72
2021/03/15 04:58:32;;;;;;;2.58;2.38;;;;;19.30;99760.00;;;;2078457;28;20626;-72
2021/03/15 04:59:33;;;;;;;2.90;2.50;;;;;19.20;99764.00;;;;2070426;28;20214;-72
2021/03/15 05:00:33;;;;;;;2.47;2.23;;;;;19.30;99766.00;;;;2070514;28;20904;-72
2021/03/15 05:01:35;;;;;;;3.03;2.70;;;;;19.30;99765.00;;;;2062485;28;20328;-72
2021/03/15 05:02:35;;;;;;;3.90;2.80;;;;;19.20;99766.00;;;;2062518;28;20661;-73
2021/03/15 05:03:35;;;;;;;3.67;2.63;;;;;19.20;99763.00;;;;2070463;28;20299;-72
2021/03/15 05:04:36;;;;;;;3.27;2.97;;;;;19.20;99773.00;;;;2078226;28;20580;-73
2021/03/15 05:05:37;;;;;;;2.40;2.20;;;;;19.30;99772.00;;;;2070365;28;20305;-72
2021/03/15 05:06:39;;;;;;;3.17;2.60;;;;;19.20;99769.00;;;;2075985;28;20222;-72
2021/03/15 05:07:40;;;;;;;2.50;2.30;;;;;19.20;99769.00;;;;2069665;28;20450;-73
2021/03/15 05:08:43;;;;;;;2.65;2.40;;;;;19.20;99759.00;;;;2054294;28;20585;-73
2021/03/15 05:09:45;;;;;;;2.70;2.50;;;;;19.20;99772.00;;;;2054915;28;20231;-72
2021/03/15 05:10:45;;;;;;;2.45;2.25;;;;;19.20;99765.00;;;;2054813;28;20289;-73
2021/03/15 05:11:46;;;;;;;3.80;2.50;;;;;19.20;99770.00;;;;2055729;28;20266;-73
2021/03/15 05:12:46;;;;;;;4.30;2.07;;;;;19.20;99765.00;;;;2063851;28;20221;-72